Time;durP1;ratioP1;P1;durP2;ratioP2;P2;SDS_P1;SDS_P2;PMS_P1;PMS_P2;Temp;Humidity;BMP_temperature;BMP_pressure;BME280_temperature;BME280_humidity;BME280_pressure;Samples;Min_cycle;Max_cycle;Signal;HPM_P1;HPM_P2
2023/11/30 00:02:00;;;;;;;12.35;6.70;;;-4.30;99.90;;;;;;4965423;28;20071;-86
2023/11/30 00:04:26;;;;;;;10.80;6.97;;;-4.30;99.90;;;;;;4969490;28;20366;-85
2023/11/30 00:06:51;;;;;;;9.68;6.68;;;-4.30;99.90;;;;;;4983527;28;20036;-88
2023/11/30 00:09:17;;;;;;;10.82;6.78;;;-4.40;99.90;;;;;;4965179;28;20026;-85
2023/11/30 00:11:42;;;;;;;10.13;6.47;;;-4.40;99.90;;;;;;4982831;28;20080;-85
2023/11/30 00:14:08;;;;;;;13.18;7.40;;;-4.50;99.90;;;;;;4960997;28;20103;-85
2023/11/30 00:16:33;;;;;;;11.98;6.57;;;-4.50;99.90;;;;;;4968414;28;20426;-85
2023/11/30 00:18:59;;;;;;;9.90;7.15;;;-4.50;99.90;;;;;;4959664;28;20440;-86
2023/11/30 00:21:24;;;;;;;9.43;6.13;;;-4.50;99.90;;;;;;4968859;28;20025;-87
2023/11/30 00:23:50;;;;;;;12.68;6.50;;;-4.60;99.90;;;;;;4978529;28;20017;-85
2023/11/30 00:26:16;;;;;;;11.10;6.72;;;-4.70;99.90;;;;;;4972303;28;20032;-85
2023/11/30 00:28:42;;;;;;;8.18;5.78;;;-4.70;99.90;;;;;;4977153;28;20548;-86
2023/11/30 00:31:07;;;;;;;12.75;6.57;;;-4.70;99.90;;;;;;4972185;28;20049;-85
2023/11/30 00:33:33;;;;;;;9.70;6.50;;;-4.80;99.90;;;;;;4980792;28;21530;-85
2023/11/30 00:35:59;;;;;;;7.85;6.30;;;-4.80;99.90;;;;;;4975087;28;20176;-86
2023/11/30 00:38:24;;;;;;;8.65;6.10;;;-4.80;99.90;;;;;;4968909;28;20557;-85
2023/11/30 00:40:50;;;;;;;8.95;6.65;;;-4.80;99.90;;;;;;4965362;28;20544;-85
2023/11/30 00:43:16;;;;;;;10.02;6.43;;;-4.80;99.90;;;;;;4978306;28;22170;-85
2023/11/30 00:45:42;;;;;;;10.90;6.72;;;-4.80;99.90;;;;;;4979504;28;20097;-86
2023/11/30 00:48:07;;;;;;;8.18;6.22;;;-4.80;99.90;;;;;;4988732;28;20116;-85
2023/11/30 00:50:33;;;;;;;11.07;7.05;;;-4.80;99.90;;;;;;4977313;28;20029;-86
2023/11/30 00:52:58;;;;;;;12.18;6.47;;;-4.80;99.90;;;;;;4971650;28;20041;-85
2023/11/30 00:55:24;;;;;;;14.52;7.72;;;-4.90;99.90;;;;;;4988205;28;20037;-85
2023/11/30 00:57:49;;;;;;;8.25;6.10;;;-4.90;99.90;;;;;;4983523;28;20123;-85
2023/11/30 01:00:15;;;;;;;14.93;7.63;;;-4.90;99.90;;;;;;4970892;28;20053;-88
2023/11/30 01:02:41;;;;;;;9.15;6.63;;;-4.90;99.90;;;;;;4984309;28;20034;-85
2023/11/30 01:05:07;;;;;;;11.52;7.03;;;-4.90;99.90;;;;;;4954359;28;20993;-86
2023/11/30 01:07:33;;;;;;;10.38;7.43;;;-4.90;99.90;;;;;;4982134;28;20037;-88
2023/11/30 01:09:59;;;;;;;10.38;7.50;;;-4.90;99.90;;;;;;4968784;28;20037;-85
2023/11/30 01:12:26;;;;;;;10.05;6.80;;;-4.90;99.90;;;;;;4992632;28;20037;-85
2023/11/30 01:14:52;;;;;;;8.40;6.53;;;-5.00;99.90;;;;;;4988084;28;20091;-86
2023/11/30 01:17:18;;;;;;;9.80;6.60;;;-5.00;99.90;;;;;;4966060;28;20029;-85
2023/11/30 01:19:44;;;;;;;11.18;6.78;;;-5.00;99.90;;;;;;4988843;28;20037;-85
2023/11/30 01:22:09;;;;;;;9.60;6.32;;;-5.10;99.90;;;;;;4971681;28;20026;-86
2023/11/30 01:24:35;;;;;;;9.88;7.10;;;-5.10;99.90;;;;;;4963948;28;20281;-85
2023/11/30 01:27:01;;;;;;;9.82;6.47;;;-5.10;99.90;;;;;;4983428;28;20021;-84
2023/11/30 01:29:26;;;;;;;10.02;6.68;;;-5.10;99.90;;;;;;4968641;28;20026;-85
2023/11/30 01:31:52;;;;;;;12.55;7.15;;;-5.20;99.90;;;;;;4975668;28;20375;-89
2023/11/30 01:34:18;;;;;;;10.43;7.70;;;-5.20;99.90;;;;;;4973702;28;20115;-84
2023/11/30 01:36:43;;;;;;;11.20;6.72;;;-5.20;99.90;;;;;;4973372;28;20038;-83
2023/11/30 01:39:09;;;;;;;9.43;6.47;;;-5.20;99.90;;;;;;4977855;28;20113;-85
2023/11/30 01:41:38;;;;;;;10.68;6.78;;;-5.20;99.90;;;;;;4989504;28;20039;-85
2023/11/30 01:44:05;;;;;;;13.20;7.10;;;-5.20;99.90;;;;;;5001256;28;20033;-85
2023/11/30 01:46:31;;;;;;;11.23;7.50;;;-5.30;99.90;;;;;;5001202;28;21155;-85
2023/11/30 01:48:58;;;;;;;10.88;7.10;;;-5.30;99.90;;;;;;4995659;28;20026;-85
2023/11/30 01:51:26;;;;;;;11.88;7.35;;;-5.30;99.90;;;;;;5002893;28;20112;-85
2023/11/30 01:53:53;;;;;;;13.32;8.23;;;-5.30;99.90;;;;;;5000876;28;20022;-85
2023/11/30 01:56:20;;;;;;;9.95;7.25;;;-5.30;99.90;;;;;;4998983;28;20017;-85
2023/11/30 01:58:47;;;;;;;10.23;7.63;;;-5.30;99.90;;;;;;4992080;28;20049;-85
2023/11/30 02:01:13;;;;;;;12.88;7.93;;;-5.30;99.90;;;;;;4984165;28;20025;-88
2023/11/30 02:03:39;;;;;;;11.65;7.38;;;-5.20;99.90;;;;;;4996328;28;20029;-85
2023/11/30 02:06:05;;;;;;;11.23;8.30;;;-5.20;99.90;;;;;;4974668;28;20026;-85
2023/11/30 02:08:31;;;;;;;12.10;6.93;;;-5.10;99.90;;;;;;4982731;28;20026;-85
2023/11/30 02:10:56;;;;;;;10.50;6.97;;;-5.10;99.90;;;;;;4997971;28;20036;-89
2023/11/30 02:13:24;;;;;;;11.48;7.22;;;-5.10;99.90;;;;;;4983343;28;20026;-85
2023/11/30 02:15:50;;;;;;;10.60;7.55;;;-5.00;99.90;;;;;;4992021;28;20026;-85
2023/11/30 02:18:16;;;;;;;12.95;8.70;;;-5.10;99.90;;;;;;4971419;28;20215;-85
2023/11/30 02:20:41;;;;;;;13.88;8.15;;;-5.00;99.90;;;;;;4976267;28;20022;-88
2023/11/30 02:23:07;;;;;;;10.90;7.45;;;-4.90;99.90;;;;;;4987934;28;20045;-85
2023/11/30 02:25:32;;;;;;;10.80;7.28;;;-4.90;99.90;;;;;;4993708;28;20801;-85
2023/11/30 02:27:58;;;;;;;12.13;7.65;;;-4.80;99.90;;;;;;5005678;28;20089;-85
2023/11/30 02:30:25;;;;;;;12.38;7.13;;;-4.80;99.90;;;;;;4986216;28;20021;-87
2023/11/30 02:32:51;;;;;;;13.38;7.30;;;-4.80;99.90;;;;;;5007515;28;20481;-85
2023/11/30 02:35:16;;;;;;;11.93;7.80;;;-4.70;99.90;;;;;;5017647;28;20044;-85
2023/11/30 02:37:42;;;;;;;9.77;6.72;;;-4.70;99.90;;;;;;4999822;28;20026;-85
2023/11/30 02:40:08;;;;;;;12.90;7.10;;;-4.70;99.90;;;;;;4994639;28;20034;-86
2023/11/30 02:42:33;;;;;;;14.35;7.55;;;-4.60;99.90;;;;;;4989349;28;20478;-85
2023/11/30 02:44:59;;;;;;;11.73;7.60;;;-4.60;99.90;;;;;;4972045;28;21299;-85
2023/11/30 02:47:24;;;;;;;13.30;6.95;;;-4.60;99.90;;;;;;4986142;28;20465;-85
2023/11/30 02:49:50;;;;;;;12.18;7.18;;;-4.50;99.90;;;;;;4976449;28;20057;-85
2023/11/30 02:52:16;;;;;;;13.23;8.07;;;-4.50;99.90;;;;;;4958712;28;20030;-87
2023/11/30 02:54:41;;;;;;;11.52;7.78;;;-4.50;99.90;;;;;;4981406;28;20535;-85
2023/11/30 02:57:07;;;;;;;11.50;7.22;;;-4.50;99.90;;;;;;4952286;28;20068;-86
2023/11/30 02:59:32;;;;;;;11.15;7.82;;;-4.50;99.90;;;;;;4985149;28;20021;-85
2023/11/30 03:01:58;;;;;;;12.73;7.80;;;-4.50;99.90;;;;;;5001011;28;20087;-86
2023/11/30 03:04:23;;;;;;;10.65;7.50;;;-4.40;99.90;;;;;;4993563;28;20116;-85
2023/11/30 03:06:50;;;;;;;10.88;7.82;;;-4.40;99.90;;;;;;5013238;28;20124;-85
2023/11/30 03:09:16;;;;;;;14.38;7.15;;;-4.40;99.90;;;;;;4975728;28;20061;-85
2023/11/30 03:11:41;;;;;;;10.63;7.18;;;-4.40;99.90;;;;;;4986139;28;20699;-85
2023/11/30 03:14:07;;;;;;;11.93;8.07;;;-4.40;99.90;;;;;;4979923;28;20025;-85
2023/11/30 03:16:33;;;;;;;11.23;7.75;;;-4.30;99.90;;;;;;4997344;28;21187;-86
2023/11/30 03:18:58;;;;;;;9.93;6.53;;;-4.30;99.90;;;;;;4992339;28;20124;-85
2023/11/30 03:21:24;;;;;;;10.07;6.25;;;-4.30;99.90;;;;;;4975177;28;20124;-85
2023/11/30 03:23:51;;;;;;;10.93;7.55;;;-4.30;99.90;;;;;;4973482;28;20036;-85
2023/11/30 03:26:17;;;;;;;10.57;7.75;;;-4.30;99.90;;;;;;4996727;28;20033;-84
2023/11/30 03:28:43;;;;;;;10.02;6.72;;;-4.30;99.90;;;;;;4983678;28;20036;-85
2023/11/30 03:31:08;;;;;;;11.27;8.00;;;-4.30;99.90;;;;;;5002985;28;20068;-85
2023/11/30 03:33:34;;;;;;;10.73;7.03;;;-4.30;99.90;;;;;;4995125;28;20033;-85
2023/11/30 03:35:59;;;;;;;12.02;6.72;;;-4.20;99.90;;;;;;4982062;28;21128;-86
2023/11/30 03:38:25;;;;;;;13.90;7.53;;;-4.20;99.90;;;;;;4993038;28;20045;-85
2023/11/30 03:40:51;;;;;;;14.68;8.18;;;-4.20;99.90;;;;;;4971809;28;20025;-85
2023/11/30 03:43:16;;;;;;;12.38;8.32;;;-4.30;99.90;;;;;;5005821;28;20030;-87
2023/11/30 03:45:42;;;;;;;12.32;7.75;;;-4.30;99.90;;;;;;5019720;28;20444;-85
2023/11/30 03:48:08;;;;;;;11.05;7.35;;;-4.40;99.90;;;;;;4994301;28;20021;-86
2023/11/30 03:50:34;;;;;;;14.35;7.30;;;-4.40;99.90;;;;;;5007639;28;20033;-85
2023/11/30 03:52:59;;;;;;;10.70;7.50;;;-4.40;99.90;;;;;;4982940;28;20022;-86
2023/11/30 03:55:25;;;;;;;11.57;7.88;;;-4.40;99.90;;;;;;4979059;28;20167;-86
2023/11/30 03:57:51;;;;;;;10.80;7.10;;;-4.50;99.90;;;;;;4994485;28;20029;-85
2023/11/30 04:00:17;;;;;;;9.63;6.55;;;-4.50;99.90;;;;;;4991575;28;20075;-85
2023/11/30 04:02:43;;;;;;;11.32;7.38;;;-4.60;99.90;;;;;;4998569;28;20628;-87
2023/11/30 04:05:13;;;;;;;12.20;7.75;;;-4.60;99.90;;;;;;4990606;28;20120;-85
2023/11/30 04:07:40;;;;;;;8.43;6.82;;;-4.60;99.90;;;;;;4981186;28;20053;-85
2023/11/30 04:10:14;;;;;;;12.57;7.68;;;-4.60;99.90;;;;;;4998297;28;20063;-85
2023/11/30 04:12:41;;;;;;;12.30;7.05;;;-4.70;99.90;;;;;;5001817;28;20033;-85
2023/11/30 04:15:06;;;;;;;10.23;7.25;;;-4.70;99.90;;;;;;4986311;28;20122;-85
2023/11/30 04:17:32;;;;;;;11.90;6.57;;;-4.80;99.90;;;;;;4991676;28;20119;-85
2023/11/30 04:19:58;;;;;;;11.55;7.50;;;-4.90;99.90;;;;;;4990494;28;20470;-85
2023/11/30 04:22:23;;;;;;;12.52;8.07;;;-4.90;99.90;;;;;;4983431;28;20072;-85
2023/11/30 04:24:49;;;;;;;12.23;7.68;;;-5.00;99.90;;;;;;5006902;28;20036;-85
2023/11/30 04:27:14;;;;;;;14.25;7.43;;;-5.00;99.90;;;;;;4989010;28;20626;-85
2023/11/30 04:29:40;;;;;;;9.80;6.53;;;-5.00;99.90;;;;;;4986135;28;20033;-87
2023/11/30 04:32:06;;;;;;;11.25;7.93;;;-5.00;99.90;;;;;;4957258;28;20033;-85
2023/11/30 04:34:32;;;;;;;10.52;7.20;;;-5.10;99.90;;;;;;4960907;28;21206;-85
2023/11/30 04:36:57;;;;;;;13.50;7.72;;;-5.10;99.90;;;;;;5001925;28;20061;-85
2023/11/30 04:39:24;;;;;;;15.52;8.20;;;-5.20;99.90;;;;;;4968821;28;20033;-86
2023/11/30 04:41:51;;;;;;;10.27;7.22;;;-5.20;99.90;;;;;;4965084;28;20646;-86
2023/11/30 04:44:17;;;;;;;11.77;7.88;;;-5.20;99.90;;;;;;4976886;28;20158;-86
2023/11/30 04:46:43;;;;;;;13.48;8.50;;;-5.20;99.90;;;;;;4973723;28;20029;-86
2023/11/30 04:49:09;;;;;;;14.20;8.38;;;-5.30;99.90;;;;;;4999192;28;20022;-85
2023/11/30 04:51:35;;;;;;;12.73;7.65;;;-5.30;99.90;;;;;;4982333;28;20037;-85
2023/11/30 04:54:01;;;;;;;14.30;7.82;;;-5.30;99.90;;;;;;4972326;28;22234;-85
2023/11/30 04:56:27;;;;;;;11.38;7.53;;;-5.40;99.90;;;;;;4986957;28;20083;-86
2023/11/30 04:58:53;;;;;;;11.00;7.35;;;-5.50;99.90;;;;;;4981083;28;20029;-86
2023/11/30 05:01:18;;;;;;;13.55;7.85;;;-5.60;99.90;;;;;;4967794;28;20093;-86
2023/11/30 05:03:44;;;;;;;10.88;7.32;;;-5.60;99.90;;;;;;4981963;28;20036;-87
2023/11/30 05:06:09;;;;;;;11.98;7.40;;;-5.70;99.90;;;;;;4968369;28;20033;-87
2023/11/30 05:08:35;;;;;;;11.90;7.30;;;-5.70;99.90;;;;;;4988448;28;20037;-86
2023/11/30 05:11:00;;;;;;;13.73;7.78;;;-5.70;99.90;;;;;;4955899;28;20075;-88
2023/11/30 05:13:27;;;;;;;13.50;7.75;;;-5.80;99.90;;;;;;4961780;28;20059;-87
2023/11/30 05:15:52;;;;;;;10.95;6.80;;;-5.80;99.90;;;;;;4992362;28;20025;-86
2023/11/30 05:18:18;;;;;;;14.77;8.20;;;-5.80;99.90;;;;;;4972167;28;21713;-84
2023/11/30 05:20:43;;;;;;;10.50;6.97;;;-5.80;99.90;;;;;;4991793;28;20032;-86
2023/11/30 05:23:09;;;;;;;14.70;7.65;;;-5.90;99.90;;;;;;4974175;28;20092;-86
2023/11/30 05:25:34;;;;;;;14.38;7.10;;;-6.00;99.90;;;;;;4973080;28;20025;-86
2023/11/30 05:28:00;;;;;;;10.15;6.72;;;-6.10;99.90;;;;;;4992089;28;20470;-84
2023/11/30 05:30:26;;;;;;;10.25;6.28;;;-6.20;99.90;;;;;;4970937;28;20033;-86
2023/11/30 05:32:52;;;;;;;10.25;7.13;;;-6.30;99.90;;;;;;4992805;28;20036;-88
2023/11/30 05:35:18;;;;;;;14.10;7.93;;;-6.30;99.90;;;;;;4977759;28;20053;-85
2023/11/30 05:37:44;;;;;;;9.80;6.50;;;-6.30;99.90;;;;;;4966528;28;20144;-85
2023/11/30 05:40:11;;;;;;;11.03;7.13;;;-6.30;99.90;;;;;;4988788;28;20038;-85
2023/11/30 05:42:37;;;;;;;14.18;7.68;;;-6.30;99.90;;;;;;4978549;28;20026;-84
2023/11/30 05:45:03;;;;;;;13.43;7.90;;;-6.30;99.90;;;;;;4988244;28;20033;-86
2023/11/30 05:47:28;;;;;;;13.43;7.15;;;-6.40;99.90;;;;;;5021383;28;21274;-86
2023/11/30 05:49:54;;;;;;;9.80;7.13;;;-6.50;99.90;;;;;;4987932;28;20029;-84
2023/11/30 05:52:20;;;;;;;9.02;6.53;;;-6.50;99.90;;;;;;4976694;28;20030;-83
2023/11/30 05:54:46;;;;;;;13.63;7.73;;;-6.60;99.90;;;;;;4993116;28;20041;-85
2023/11/30 05:57:11;;;;;;;12.85;7.30;;;-6.50;99.90;;;;;;4994278;28;21705;-87
2023/11/30 05:59:37;;;;;;;9.85;6.78;;;-6.50;99.90;;;;;;5029984;28;20036;-87
2023/11/30 06:02:04;;;;;;;12.68;7.05;;;-6.60;99.90;;;;;;5005088;28;20026;-85
2023/11/30 06:04:31;;;;;;;12.05;7.80;;;-6.60;99.90;;;;;;5004425;28;20025;-84
2023/11/30 06:06:56;;;;;;;9.65;6.53;;;-6.60;99.90;;;;;;4978629;28;20026;-85
2023/11/30 06:09:22;;;;;;;12.05;7.35;;;-6.60;99.90;;;;;;4985457;28;20044;-85
2023/11/30 06:11:48;;;;;;;10.35;6.72;;;-6.60;99.90;;;;;;5011333;28;20130;-85
2023/11/30 06:14:13;;;;;;;7.50;5.75;;;-6.50;99.90;;;;;;5007283;28;20033;-87
2023/11/30 06:16:39;;;;;;;10.48;6.78;;;-6.50;99.90;;;;;;4986844;28;20033;-87
2023/11/30 06:19:04;;;;;;;12.10;7.47;;;-6.50;99.90;;;;;;4967563;28;20044;-85
2023/11/30 06:21:30;;;;;;;11.00;7.43;;;-6.50;99.90;;;;;;4984992;28;20119;-83
2023/11/30 06:23:55;;;;;;;11.52;7.22;;;-6.50;99.90;;;;;;4980478;28;20037;-86
2023/11/30 06:26:21;;;;;;;12.13;8.23;;;-6.50;99.90;;;;;;5003522;28;20032;-84
2023/11/30 06:28:47;;;;;;;13.32;7.15;;;-6.60;99.90;;;;;;5029466;28;20030;-85
2023/11/30 06:31:15;;;;;;;12.45;8.18;;;-6.60;99.90;;;;;;4971002;28;20068;-85
2023/11/30 06:33:42;;;;;;;12.85;7.65;;;-6.70;99.90;;;;;;4983195;28;20129;-85
2023/11/30 06:36:08;;;;;;;9.93;6.70;;;-6.70;99.90;;;;;;4995887;28;20025;-84
2023/11/30 06:38:33;;;;;;;11.93;7.03;;;-6.70;99.90;;;;;;4994699;28;21397;-85
2023/11/30 06:41:00;;;;;;;9.32;6.85;;;-6.60;99.90;;;;;;5024853;28;20059;-85
2023/11/30 06:43:26;;;;;;;11.60;7.35;;;-6.60;99.90;;;;;;4982769;28;20045;-85
2023/11/30 06:45:52;;;;;;;11.02;8.00;;;-6.60;99.90;;;;;;4993311;28;20028;-85
2023/11/30 06:48:17;;;;;;;12.38;8.02;;;-6.60;99.90;;;;;;4990730;28;20026;-85
2023/11/30 06:50:43;;;;;;;11.63;7.93;;;-6.70;99.90;;;;;;4982014;28;20021;-85
2023/11/30 06:53:09;;;;;;;12.05;8.18;;;-6.70;99.90;;;;;;5000822;28;20075;-86
2023/11/30 06:55:34;;;;;;;13.07;8.10;;;-6.70;99.90;;;;;;4982536;28;20029;-85
2023/11/30 06:58:00;;;;;;;12.40;8.45;;;-6.80;99.90;;;;;;5003663;28;21268;-85
2023/11/30 07:00:26;;;;;;;10.77;7.50;;;-6.80;99.90;;;;;;4991755;28;20057;-86
2023/11/30 07:02:53;;;;;;;11.63;8.85;;;-6.80;99.90;;;;;;4990925;28;20022;-86
2023/11/30 07:05:20;;;;;;;15.27;8.23;;;-6.70;99.90;;;;;;4991929;28;20056;-88
2023/11/30 07:07:46;;;;;;;16.25;8.90;;;-6.70;99.90;;;;;;5002586;28;20031;-85
2023/11/30 07:10:12;;;;;;;12.63;8.90;;;-6.70;99.90;;;;;;4993696;28;20021;-86
2023/11/30 07:12:38;;;;;;;11.50;8.18;;;-6.70;99.90;;;;;;4989989;28;20612;-85
2023/11/30 07:15:04;;;;;;;12.68;8.30;;;-6.70;99.90;;;;;;4987162;28;20018;-85
2023/11/30 07:17:30;;;;;;;14.98;8.65;;;-6.60;99.90;;;;;;4981418;28;20029;-85
2023/11/30 07:19:55;;;;;;;22.07;12.03;;;-6.60;99.90;;;;;;5011519;28;20018;-85
2023/11/30 07:22:24;;;;;;;23.50;12.23;;;-6.60;99.90;;;;;;4987378;28;20049;-85
2023/11/30 07:24:50;;;;;;;17.27;11.40;;;-6.70;99.90;;;;;;4993369;28;20687;-85
2023/11/30 07:27:17;;;;;;;17.77;9.68;;;-6.70;99.90;;;;;;4987128;28;20108;-85
2023/11/30 07:29:43;;;;;;;20.67;11.30;;;-6.80;99.90;;;;;;4989572;28;20014;-85
2023/11/30 07:32:09;;;;;;;20.85;12.07;;;-6.70;99.90;;;;;;5005011;28;20545;-85
2023/11/30 07:34:35;;;;;;;19.45;12.52;;;-6.70;99.90;;;;;;4985789;28;20033;-85
2023/11/30 07:37:01;;;;;;;24.10;13.30;;;-6.70;99.90;;;;;;4990203;28;20147;-85
2023/11/30 07:39:27;;;;;;;22.65;12.48;;;-6.70;99.90;;;;;;4984998;28;20029;-85
2023/11/30 07:41:52;;;;;;;19.63;13.20;;;-6.70;99.90;;;;;;4990660;28;20028;-88
2023/11/30 07:44:21;;;;;;;23.90;12.35;;;-6.70;99.90;;;;;;4981905;28;20113;-88
2023/11/30 07:46:46;;;;;;;21.40;12.43;;;-6.60;99.90;;;;;;5000730;28;20075;-85
2023/11/30 07:49:12;;;;;;;16.17;9.97;;;-6.70;99.90;;;;;;4986403;28;20029;-85
2023/11/30 07:51:37;;;;;;;16.55;9.23;;;-6.60;99.90;;;;;;4991090;28;20037;-85
2023/11/30 07:54:03;;;;;;;15.55;10.45;;;-6.60;99.90;;;;;;4978263;28;20031;-85
2023/11/30 07:56:28;;;;;;;16.08;10.00;;;-6.50;99.90;;;;;;5002579;28;20032;-86
2023/11/30 07:58:54;;;;;;;15.68;9.38;;;-6.60;99.90;;;;;;5007591;28;20021;-84
2023/11/30 08:01:20;;;;;;;15.23;9.63;;;-6.60;99.90;;;;;;4985401;28;20032;-86
2023/11/30 08:03:46;;;;;;;14.00;9.00;;;-6.60;99.90;;;;;;5006318;28;20025;-85
2023/11/30 08:06:12;;;;;;;17.45;10.05;;;-6.60;99.90;;;;;;4997867;28;20025;-85
2023/11/30 08:08:38;;;;;;;15.82;10.57;;;-6.60;99.90;;;;;;4981522;28;21082;-85
2023/11/30 08:11:04;;;;;;;21.83;10.63;;;-6.60;99.90;;;;;;4983855;28;20424;-85
2023/11/30 08:13:30;;;;;;;16.25;9.93;;;-6.60;99.90;;;;;;4984655;28;20028;-86
2023/11/30 08:15:56;;;;;;;14.13;9.33;;;-6.50;99.90;;;;;;4952177;28;20029;-86
2023/11/30 08:18:24;;;;;;;13.88;8.95;;;-6.50;99.90;;;;;;4975826;28;20025;-86
2023/11/30 08:20:50;;;;;;;14.70;9.38;;;-6.50;99.90;;;;;;4996301;28;20053;-86
2023/11/30 08:23:17;;;;;;;13.97;9.20;;;-6.40;99.90;;;;;;4963217;28;20021;-89
2023/11/30 08:25:42;;;;;;;14.57;9.37;;;-6.40;99.90;;;;;;5004087;28;20073;-85
2023/11/30 08:28:08;;;;;;;15.80;10.93;;;-6.40;99.90;;;;;;4965786;28;20021;-86
2023/11/30 08:30:33;;;;;;;18.17;11.52;;;-6.30;99.90;;;;;;4972436;28;20051;-87
2023/11/30 08:33:04;;;;;;;17.65;10.43;;;-6.30;99.90;;;;;;4965322;28;20034;-89
2023/11/30 08:35:29;;;;;;;16.90;10.82;;;-6.30;99.90;;;;;;4989538;28;20420;-86
2023/11/30 08:37:55;;;;;;;17.40;11.35;;;-6.20;99.90;;;;;;4987389;28;20073;-88
2023/11/30 08:40:21;;;;;;;15.15;10.27;;;-6.20;99.90;;;;;;4937717;28;20025;-85
2023/11/30 08:42:47;;;;;;;18.77;11.60;;;-6.10;99.90;;;;;;4961053;28;20243;-87
2023/11/30 08:45:12;;;;;;;17.30;11.55;;;-6.00;99.90;;;;;;4989715;28;20124;-86
2023/11/30 08:47:38;;;;;;;19.10;11.50;;;-5.90;99.90;;;;;;5003273;28;21515;-86
2023/11/30 08:50:04;;;;;;;13.75;10.30;;;-5.80;99.90;;;;;;4998831;28;20018;-86
2023/11/30 08:52:29;;;;;;;16.58;10.57;;;-5.70;99.90;;;;;;4981251;28;20034;-86
2023/11/30 08:54:55;;;;;;;18.60;11.45;;;-5.60;99.90;;;;;;4980909;28;20033;-89
2023/11/30 08:57:21;;;;;;;16.00;10.65;;;-5.50;99.90;;;;;;4985846;28;20116;-86
2023/11/30 08:59:46;;;;;;;14.95;10.13;;;-5.40;99.90;;;;;;4976904;28;20181;-86
2023/11/30 09:02:13;;;;;;;18.58;10.43;;;-5.30;99.90;;;;;;4996806;28;20875;-89
2023/11/30 09:04:38;;;;;;;16.73;11.27;;;-5.20;99.90;;;;;;4980136;28;20032;-86
2023/11/30 09:07:04;;;;;;;15.45;10.27;;;-5.10;99.90;;;;;;4931445;28;20033;-88
2023/11/30 09:09:29;;;;;;;19.25;10.85;;;-5.00;99.90;;;;;;4962780;28;20040;-86
2023/11/30 09:11:55;;;;;;;13.98;10.35;;;-4.90;99.90;;;;;;4888741;28;20489;-86
2023/11/30 09:14:20;;;;;;;16.50;12.18;;;-4.80;99.90;;;;;;4926364;28;20524;-88
2023/11/30 09:16:46;;;;;;;18.20;11.25;;;-4.70;99.90;;;;;;4970151;28;20061;-84
2023/11/30 09:19:12;;;;;;;16.70;11.40;;;-4.60;99.90;;;;;;4953319;28;20030;-87
2023/11/30 09:21:37;;;;;;;17.30;11.27;;;-4.50;99.90;;;;;;4974997;28;20129;-87
2023/11/30 09:24:04;;;;;;;17.17;11.38;;;-4.40;99.90;;;;;;4943757;28;20041;-88
2023/11/30 09:26:31;;;;;;;19.80;11.32;;;-4.30;99.90;;;;;;4951128;28;20018;-89
2023/11/30 09:28:57;;;;;;;19.95;12.40;;;-4.30;99.90;;;;;;4980134;28;20026;-85
2023/11/30 09:31:23;;;;;;;18.50;11.63;;;-4.30;99.90;;;;;;4952918;28;20159;-87
2023/11/30 09:33:48;;;;;;;16.88;10.30;;;-4.20;99.90;;;;;;5002732;28;20037;-86
2023/11/30 09:36:19;;;;;;;18.77;11.80;;;-4.10;99.90;;;;;;4978411;28;20052;-87
2023/11/30 09:38:57;;;;;;;16.33;10.95;;;-4.00;99.90;;;;;;4968052;28;20026;-86
2023/11/30 09:41:23;;;;;;;19.35;11.57;;;-3.90;99.90;;;;;;4957828;28;20592;-86
2023/11/30 09:43:49;;;;;;;16.65;11.80;;;-3.80;99.90;;;;;;4952058;28;20066;-86
2023/11/30 09:46:16;;;;;;;24.42;13.73;;;-3.70;99.90;;;;;;4980855;28;21154;-85
2023/11/30 09:48:42;;;;;;;26.38;15.02;;;-3.60;99.90;;;;;;4996241;28;20025;-85
2023/11/30 09:51:10;;;;;;;37.22;17.67;;;-3.50;99.90;;;;;;4962820;28;20021;-87
2023/11/30 09:53:36;;;;;;;31.52;17.83;;;-3.50;99.90;;;;;;4965242;28;20034;-85
2023/11/30 09:56:03;;;;;;;35.72;17.48;;;-3.50;99.90;;;;;;4946114;28;21225;-85
2023/11/30 09:58:28;;;;;;;23.73;14.45;;;-3.40;99.90;;;;;;4951154;28;20037;-85
2023/11/30 10:00:54;;;;;;;19.75;12.57;;;-3.40;99.90;;;;;;4950840;28;20033;-91
2023/11/30 10:03:31;;;;;;;21.08;13.15;;;-3.30;99.90;;;;;;4938001;28;20022;-85
2023/11/30 10:05:56;;;;;;;18.90;12.45;;;-3.30;99.90;;;;;;4979490;28;20033;-86
2023/11/30 10:08:22;;;;;;;20.50;13.73;;;-3.30;99.90;;;;;;4924664;28;20022;-86
2023/11/30 10:10:48;;;;;;;20.33;12.52;;;-3.20;99.90;;;;;;4946542;28;20550;-86
2023/11/30 10:13:13;;;;;;;22.27;12.40;;;-3.10;99.90;;;;;;4941509;28;21486;-85
2023/11/30 10:15:39;;;;;;;24.27;14.80;;;-3.10;99.90;;;;;;4960855;28;20168;-89
2023/11/30 10:18:05;;;;;;;27.50;15.05;;;-3.00;99.90;;;;;;4968451;28;20110;-85
2023/11/30 10:20:30;;;;;;;22.45;13.30;;;-3.00;99.90;;;;;;4948661;28;20054;-86
2023/11/30 10:22:56;;;;;;;27.42;15.20;;;-3.00;99.90;;;;;;4937565;28;20086;-85
2023/11/30 10:25:21;;;;;;;21.80;13.63;;;-2.90;99.90;;;;;;4933329;28;20033;-87
2023/11/30 10:27:52;;;;;;;21.42;13.30;;;-2.90;99.90;;;;;;4961364;28;20041;-86
2023/11/30 10:30:18;;;;;;;21.35;12.90;;;-2.90;99.90;;;;;;4929072;28;20498;-90
2023/11/30 10:32:44;;;;;;;24.77;14.95;;;-2.80;99.90;;;;;;4945638;28;20029;-86
2023/11/30 10:35:14;;;;;;;24.42;14.88;;;-2.70;99.90;;;;;;4920021;28;20036;-85
2023/11/30 10:37:50;;;;;;;24.08;13.52;;;-2.70;99.90;;;;;;4938775;28;20160;-90
2023/11/30 10:40:17;;;;;;;21.48;14.65;;;-2.60;99.90;;;;;;4931795;28;21076;-86
2023/11/30 10:42:48;;;;;;;20.10;12.45;;;-2.60;99.90;;;;;;4973472;28;20021;-87
2023/11/30 10:45:15;;;;;;;22.85;14.13;;;-2.60;99.90;;;;;;4961980;28;20022;-90
2023/11/30 10:47:42;;;;;;;23.90;12.90;;;-2.60;99.90;;;;;;4922063;28;20026;-86
2023/11/30 10:50:09;;;;;;;19.85;13.68;;;-2.50;99.90;;;;;;4916504;28;20033;-86
2023/11/30 10:52:35;;;;;;;20.92;13.18;;;-2.40;99.90;;;;;;4934155;28;20026;-86
2023/11/30 10:55:07;;;;;;;23.98;12.25;;;-2.40;99.90;;;;;;4916125;28;20390;-87
2023/11/30 10:57:32;;;;;;;18.65;12.70;;;-2.30;99.90;;;;;;4959475;28;21068;-86
2023/11/30 10:59:59;;;;;;;22.88;12.93;;;-2.30;99.90;;;;;;4967041;28;20060;-87
2023/11/30 11:02:34;;;;;;;22.75;15.05;;;-2.30;99.90;;;;;;5012293;28;20101;-87
2023/11/30 11:05:00;;;;;;;24.45;13.88;;;-2.30;99.90;;;;;;5025726;28;20187;-89
2023/11/30 11:07:26;;;;;;;25.77;14.48;;;-2.30;99.90;;;;;;5021356;28;20033;-86
2023/11/30 11:09:54;;;;;;;24.58;14.90;;;-2.20;99.90;;;;;;5013209;28;20022;-87
2023/11/30 11:12:21;;;;;;;24.15;15.10;;;-2.20;99.90;;;;;;5014133;28;20036;-86
2023/11/30 11:14:48;;;;;;;23.90;14.88;;;-2.20;99.90;;;;;;5012968;28;20053;-89
2023/11/30 11:17:15;;;;;;;26.10;13.77;;;-2.20;99.90;;;;;;5010341;28;20451;-85
2023/11/30 11:19:42;;;;;;;23.98;15.07;;;-2.20;99.90;;;;;;5013806;28;20029;-87
2023/11/30 11:22:21;;;;;;;22.70;13.57;;;-2.10;99.90;;;;;;5014613;28;20052;-86
2023/11/30 11:24:48;;;;;;;22.20;13.80;;;-2.10;99.90;;;;;;5011070;28;20021;-87
2023/11/30 11:27:27;;;;;;;18.92;12.63;;;-2.10;99.90;;;;;;5014754;28;20032;-86
2023/11/30 11:29:55;;;;;;;24.20;14.55;;;-2.10;99.90;;;;;;5011061;28;20110;-90
2023/11/30 11:32:23;;;;;;;20.27;12.85;;;-2.10;99.90;;;;;;5027114;28;20097;-86
2023/11/30 11:34:49;;;;;;;21.45;13.65;;;-2.10;99.90;;;;;;5006935;28;20335;-86
2023/11/30 11:37:14;;;;;;;19.25;12.50;;;-2.10;99.90;;;;;;5008398;28;20048;-85
2023/11/30 11:39:41;;;;;;;21.40;12.98;;;-2.00;99.90;;;;;;5012706;28;20026;-86
2023/11/30 11:42:07;;;;;;;20.23;12.65;;;-2.00;99.90;;;;;;5013440;28;20025;-86
2023/11/30 11:44:33;;;;;;;19.88;13.10;;;-2.00;99.90;;;;;;5004808;28;20050;-86
2023/11/30 11:47:03;;;;;;;18.75;12.68;;;-2.00;99.90;;;;;;5010790;28;20033;-86
2023/11/30 11:49:29;;;;;;;22.98;13.77;;;-2.00;99.90;;;;;;5009049;28;20030;-86
2023/11/30 11:51:57;;;;;;;20.60;12.07;;;-1.90;99.90;;;;;;5004458;28;20026;-88
2023/11/30 11:54:23;;;;;;;15.85;12.05;;;-2.00;99.90;;;;;;5015548;28;20010;-88
2023/11/30 11:56:50;;;;;;;23.02;13.63;;;-2.00;99.90;;;;;;5024404;28;20212;-90
2023/11/30 11:59:29;;;;;;;20.30;12.68;;;-1.90;99.90;;;;;;5015540;28;20102;-87
2023/11/30 12:01:57;;;;;;;18.83;13.00;;;-1.90;99.90;;;;;;5013314;28;20436;-88
2023/11/30 12:04:31;;;;;;;20.58;13.23;;;-1.90;99.90;;;;;;5012485;28;20029;-88
2023/11/30 12:06:58;;;;;;;21.17;13.15;;;-2.00;99.90;;;;;;5005689;28;20100;-86
2023/11/30 12:09:24;;;;;;;22.33;12.77;;;-2.00;99.90;;;;;;5007369;28;20013;-86
2023/11/30 12:11:50;;;;;;;22.30;12.88;;;-2.00;99.90;;;;;;5010523;28;20044;-87
2023/11/30 12:14:16;;;;;;;19.67;13.95;;;-2.00;99.90;;;;;;5009958;28;20029;-85
2023/11/30 12:16:42;;;;;;;25.80;13.10;;;-2.10;99.90;;;;;;5010291;28;20444;-86
2023/11/30 12:19:08;;;;;;;18.92;12.05;;;-2.20;99.90;;;;;;5011022;28;20128;-86
2023/11/30 12:21:35;;;;;;;21.63;13.57;;;-2.20;99.90;;;;;;5010304;28;20125;-88
2023/11/30 12:24:02;;;;;;;19.23;12.98;;;-2.20;99.90;;;;;;5004240;28;20041;-86
2023/11/30 12:26:28;;;;;;;20.17;12.10;;;-2.30;99.90;;;;;;5008696;28;20025;-87
2023/11/30 12:28:54;;;;;;;22.25;13.93;;;-2.30;99.90;;;;;;5011177;28;20378;-85